Bookmark and Share
Track history (hours):
 

CSAV Loncomilla

Last reported at 2014-Apr-20 06:04 UTC. Time now 2014-Apr-23 15:16 UTC.
Position S 24°04' W 046°00'.

Length 261 m; draft 11.3 m.

Type: Cargo ship. MMSI: 477207400.

NotesDate/timePositionNaut miles runAvg speedWind from/ knotsBaromVisibWave heightAir tempDewpointWater temp
2014-Apr-20 06:04S 24°04' W 046°00'713.6
2014-Apr-20 05:31S 24°05' W 046°08'1212.1
2014-Apr-20 04:33S 24°02' W 046°21'5 5.0
2014-Apr-20 03:33S 23°58' W 046°18'0 0.1
2014-Apr-20 02:33S 23°58' W 046°18'0 0.0
2014-Apr-20 01:33S 23°58' W 046°18'0 0.0
2014-Apr-20 00:33S 23°58' W 046°18'0 0.0
2014-Apr-19 23:30S 23°58' W 046°18'0 0.0
2014-Apr-19 22:33S 23°58' W 046°18'0 0.0
2014-Apr-19 21:33S 23°58' W 046°18'0 0.0
2014-Apr-19 20:33S 23°58' W 046°18'0 0.0
2014-Apr-19 19:33S 23°58' W 046°18'0 0.0
2014-Apr-19 18:33S 23°58' W 046°18'0 0.0
2014-Apr-19 17:33S 23°58' W 046°18'0 0.0
2014-Apr-19 16:33S 23°58' W 046°18'0 0.0
2014-Apr-19 15:24S 23°58' W 046°18'0 0.0
2014-Apr-19 14:30S 23°58' W 046°18'0 0.0
2014-Apr-19 13:33S 23°58' W 046°18'0 0.0
2014-Apr-19 12:33S 23°58' W 046°18'0 0.4
2014-Apr-19 11:33S 23°58' W 046°18'7 7.5
2014-Apr-19 10:33S 24°04' W 046°22'11 9.7
2014-Apr-19 09:27S 24°14' W 046°18'4 0.2
2014-Apr-18 17:31S 24°14' W 046°14'218 6.8
2014-Apr-17 09:32S 27°23' W 048°14'1716.7
2014-Apr-17 08:33S 27°39' W 048°14'1717.1
2014-Apr-17 07:33S 27°56' W 048°14'  

Dump ship's entire track history

sailing weather and tide predictions

CSAV Loncomilla — VRFB3 — position and weather